Time;durP1;ratioP1;P1;durP2;ratioP2;P2;SDS_P1;SDS_P2;PMS_P1;PMS_P2;Temp;Humidity;BMP_temperature;BMP_pressure;BME280_temperature;BME280_humidity;BME280_pressure;Samples;Min_cycle;Max_cycle;Signal;HPM_P1;HPM_P2
2022/03/20 00:01:11;;;;;;;21.15;10.48;;;;;;;;;;4836718;29;20050;-86
2022/03/20 00:03:55;;;;;;;25.25;11.35;;;;;;;;;;4827343;29;20038;-83
2022/03/20 00:06:40;;;;;;;12.88;6.65;;;;;;;;;;4811763;29;20046;-84
2022/03/20 00:09:26;;;;;;;22.17;11.38;;;;;;;;;;4825960;29;20050;-85
2022/03/20 00:12:11;;;;;;;27.70;11.85;;;;;;;;;;4831410;29;20050;-83
2022/03/20 00:14:57;;;;;;;31.27;12.80;;;;;;;;;;4824675;29;20045;-87
2022/03/20 00:17:43;;;;;;;26.05;12.98;;;;;;;;;;4829231;29;20042;-84
2022/03/20 00:20:32;;;;;;;27.73;13.00;;;;;;;;;;4829449;29;20042;-85
2022/03/20 00:23:18;;;;;;;26.85;14.07;;;;;;;;;;4825274;29;20483;-85
2022/03/20 00:26:03;;;;;;;30.85;13.63;;;;;;;;;;4809969;29;20043;-86
2022/03/20 00:28:49;;;;;;;26.67;13.27;;;;;;;;;;4823568;29;20046;-86
2022/03/20 00:31:35;;;;;;;25.35;12.48;;;;;;;;;;4823955;29;20046;-86
2022/03/20 00:34:21;;;;;;;39.15;16.52;;;;;;;;;;4797319;29;20054;-86
2022/03/20 00:37:08;;;;;;;26.35;14.05;;;;;;;;;;4823953;29;20054;-86
2022/03/20 00:39:55;;;;;;;25.05;13.63;;;;;;;;;;4810954;29;20046;-85
2022/03/20 00:42:41;;;;;;;31.08;14.35;;;;;;;;;;4825273;29;20042;-86
2022/03/20 00:45:28;;;;;;;71.68;25.25;;;;;;;;;;4831257;29;20043;-84
2022/03/20 00:48:13;;;;;;;296.25;88.75;;;;;;;;;;4825115;29;20058;-86
2022/03/20 00:51:03;;;;;;;412.77;136.38;;;;;;;;;;4811675;29;20038;-86
2022/03/20 00:53:48;;;;;;;403.50;128.70;;;;;;;;;;4817881;29;20046;-86
2022/03/20 00:56:34;;;;;;;323.73;99.50;;;;;;;;;;4825819;29;20375;-86
2022/03/20 00:59:19;;;;;;;222.73;66.20;;;;;;;;;;4818288;29;20038;-87
2022/03/20 01:02:05;;;;;;;146.07;47.78;;;;;;;;;;4818124;29;20046;-84
2022/03/20 01:04:50;;;;;;;138.98;44.72;;;;;;;;;;4831347;29;20055;-87
2022/03/20 01:07:37;;;;;;;86.45;29.48;;;;;;;;;;4825375;29;20050;-85
2022/03/20 01:10:22;;;;;;;93.97;33.95;;;;;;;;;;4818523;29;20463;-84
2022/03/20 01:13:07;;;;;;;76.07;26.33;;;;;;;;;;4826209;29;20050;-85
2022/03/20 01:15:53;;;;;;;80.00;29.38;;;;;;;;;;4826122;29;20058;-84
2022/03/20 01:18:38;;;;;;;41.33;18.60;;;;;;;;;;4824997;29;20395;-87
2022/03/20 01:21:24;;;;;;;34.05;16.73;;;;;;;;;;4824789;29;20038;-85
2022/03/20 01:24:09;;;;;;;77.00;28.25;;;;;;;;;;4817168;29;20054;-87
2022/03/20 01:26:56;;;;;;;58.75;24.60;;;;;;;;;;4817632;29;20050;-85
2022/03/20 01:29:42;;;;;;;70.75;29.25;;;;;;;;;;4838171;29;20053;-86
2022/03/20 01:32:28;;;;;;;54.10;22.90;;;;;;;;;;4832405;29;20050;-86
2022/03/20 01:35:13;;;;;;;54.00;23.08;;;;;;;;;;4822537;29;20046;-86
2022/03/20 01:37:59;;;;;;;88.43;32.05;;;;;;;;;;4840704;29;20046;-86
2022/03/20 01:40:44;;;;;;;67.43;27.33;;;;;;;;;;4808798;29;20479;-87
2022/03/20 01:43:30;;;;;;;68.85;27.17;;;;;;;;;;4828886;29;20382;-86
2022/03/20 01:46:16;;;;;;;73.47;27.60;;;;;;;;;;4835062;29;20050;-84
2022/03/20 01:49:01;;;;;;;62.95;25.15;;;;;;;;;;4828000;29;20047;-86
2022/03/20 01:54:50;;;;;;;72.15;29.35;;;;;;;;;;4821013;29;20050;-84
2022/03/20 01:57:39;;;;;;;58.72;24.50;;;;;;;;;;4821441;29;20374;-84
2022/03/20 02:00:26;;;;;;;62.42;29.27;;;;;;;;;;4824283;29;20050;-85
2022/03/20 02:03:12;;;;;;;42.33;21.10;;;;;;;;;;4822673;29;20043;-84
2022/03/20 02:05:58;;;;;;;31.55;15.15;;;;;;;;;;4815551;29;20042;-85
2022/03/20 02:08:44;;;;;;;31.33;14.20;;;;;;;;;;4816240;29;20058;-83
2022/03/20 02:11:29;;;;;;;28.27;13.23;;;;;;;;;;4819986;29;20042;-86
2022/03/20 02:14:15;;;;;;;30.88;15.30;;;;;;;;;;4820343;29;20054;-86
2022/03/20 02:17:02;;;;;;;42.13;17.85;;;;;;;;;;4827611;29;20393;-84
2022/03/20 02:19:47;;;;;;;34.05;14.80;;;;;;;;;;4819606;29;20085;-85
2022/03/20 02:22:33;;;;;;;29.65;15.80;;;;;;;;;;4814024;29;20042;-86
2022/03/20 02:25:19;;;;;;;27.20;14.68;;;;;;;;;;4813644;29;20050;-86
2022/03/20 02:28:04;;;;;;;32.42;12.80;;;;;;;;;;4813838;29;20058;-85
2022/03/20 02:30:51;;;;;;;29.05;13.90;;;;;;;;;;4813939;29;20058;-85
2022/03/20 02:33:36;;;;;;;28.77;12.00;;;;;;;;;;4826811;29;20394;-86
2022/03/20 02:36:22;;;;;;;27.38;13.13;;;;;;;;;;4827420;29;20046;-85
2022/03/20 02:39:08;;;;;;;30.98;13.15;;;;;;;;;;4812512;29;20497;-85
2022/03/20 02:41:55;;;;;;;27.27;13.23;;;;;;;;;;4813872;29;20039;-87
2022/03/20 02:44:56;;;;;;;21.80;11.75;;;;;;;;;;4819669;29;20046;-87
2022/03/20 02:47:45;;;;;;;23.85;11.85;;;;;;;;;;4826749;29;20062;-85
2022/03/20 02:50:33;;;;;;;28.45;13.68;;;;;;;;;;4820340;29;20046;-86
2022/03/20 02:53:18;;;;;;;28.77;13.35;;;;;;;;;;4826632;29;20043;-85
2022/03/20 02:56:04;;;;;;;30.08;14.75;;;;;;;;;;4813420;29;20475;-85
2022/03/20 02:58:49;;;;;;;29.25;14.38;;;;;;;;;;4827016;29;20382;-87
2022/03/20 03:01:35;;;;;;;28.73;14.30;;;;;;;;;;4826494;29;20038;-84
2022/03/20 03:04:23;;;;;;;28.08;13.25;;;;;;;;;;4813548;29;20386;-84
2022/03/20 03:07:09;;;;;;;25.75;13.75;;;;;;;;;;4826384;29;20034;-86
2022/03/20 03:12:57;;;;;;;33.40;15.23;;;;;;;;;;4819054;29;20050;-86
2022/03/20 03:15:43;;;;;;;29.30;13.90;;;;;;;;;;4806332;29;20382;-87
2022/03/20 03:18:29;;;;;;;32.17;15.32;;;;;;;;;;4826624;29;20046;-86
2022/03/20 03:21:18;;;;;;;26.48;14.13;;;;;;;;;;4819101;29;20050;-86
2022/03/20 03:24:03;;;;;;;24.70;12.57;;;;;;;;;;4818759;29;20046;-85
2022/03/20 03:26:48;;;;;;;32.63;14.15;;;;;;;;;;4812880;29;20054;-86
2022/03/20 03:29:34;;;;;;;23.00;11.93;;;;;;;;;;4806019;29;20054;-84
2022/03/20 03:32:19;;;;;;;25.45;12.02;;;;;;;;;;4819020;29;20050;-86
2022/03/20 03:38:11;;;;;;;22.60;12.13;;;;;;;;;;4818599;29;20050;-85
2022/03/20 03:40:58;;;;;;;27.85;13.38;;;;;;;;;;4819084;29;20058;-85
2022/03/20 03:43:44;;;;;;;27.85;14.18;;;;;;;;;;4806117;29;20042;-85
2022/03/20 03:46:29;;;;;;;29.15;13.90;;;;;;;;;;4826671;29;20042;-87
2022/03/20 03:49:16;;;;;;;31.45;15.05;;;;;;;;;;4818669;29;20054;-86
2022/03/20 03:52:02;;;;;;;28.15;14.38;;;;;;;;;;4826554;29;20046;-86
2022/03/20 03:54:47;;;;;;;33.25;15.32;;;;;;;;;;4819072;29;20394;-85
2022/03/20 03:57:32;;;;;;;28.55;14.02;;;;;;;;;;4815899;29;20042;-85
2022/03/20 04:00:20;;;;;;;31.38;15.80;;;;;;;;;;4833165;29;20390;-84
2022/03/20 04:03:06;;;;;;;37.40;16.42;;;;;;;;;;4825837;29;20050;-84
2022/03/20 04:05:53;;;;;;;38.05;15.95;;;;;;;;;;4832421;29;20454;-86
2022/03/20 04:08:38;;;;;;;32.72;14.70;;;;;;;;;;4812050;29;20394;-84
2022/03/20 04:11:24;;;;;;;21.90;11.43;;;;;;;;;;4818490;29;20046;-87
2022/03/20 04:14:10;;;;;;;24.42;14.18;;;;;;;;;;4812929;29;20038;-85
2022/03/20 04:16:56;;;;;;;33.75;14.32;;;;;;;;;;4818218;29;20046;-86
2022/03/20 04:19:41;;;;;;;33.28;15.93;;;;;;;;;;4818135;29;20073;-85
2022/03/20 04:22:28;;;;;;;33.45;15.98;;;;;;;;;;4805644;29;20470;-85
2022/03/20 04:25:14;;;;;;;34.70;16.23;;;;;;;;;;4804952;29;20046;-86
2022/03/20 04:27:59;;;;;;;35.50;16.33;;;;;;;;;;4812050;29;20046;-84
2022/03/20 04:30:45;;;;;;;38.17;16.73;;;;;;;;;;4805357;29;20050;-86
2022/03/20 04:33:31;;;;;;;31.25;13.88;;;;;;;;;;4825463;29;20050;-86
2022/03/20 04:36:21;;;;;;;27.00;12.02;;;;;;;;;;4801178;29;20054;-84
2022/03/20 04:39:06;;;;;;;22.67;10.65;;;;;;;;;;4817222;29;20042;-84
2022/03/20 04:41:52;;;;;;;28.13;11.20;;;;;;;;;;4805168;29;20046;-85
2022/03/20 04:44:40;;;;;;;24.63;11.93;;;;;;;;;;4799395;29;20042;-85
2022/03/20 04:59:40;;;;;;;20.77;9.32;;;;;;;;;;4824641;29;20046;-85
2022/03/20 05:02:25;;;;;;;22.17;11.05;;;;;;;;;;4817275;29;20415;-85
2022/03/20 05:05:10;;;;;;;27.30;12.07;;;;;;;;;;4825089;29;20054;-84
2022/03/20 05:07:56;;;;;;;25.30;11.40;;;;;;;;;;4817471;29;20046;-85
2022/03/20 05:13:45;;;;;;;35.45;16.50;;;;;;;;;;4835834;29;20386;-84
2022/03/20 05:16:30;;;;;;;35.33;17.00;;;;;;;;;;4822790;29;20047;-84
2022/03/20 05:19:15;;;;;;;33.08;15.20;;;;;;;;;;4828270;29;20038;-83
2022/03/20 05:22:05;;;;;;;26.52;12.77;;;;;;;;;;4836593;29;20038;-84
2022/03/20 05:24:50;;;;;;;30.75;13.73;;;;;;;;;;4827799;29;20050;-86
2022/03/20 05:27:37;;;;;;;32.67;14.82;;;;;;;;;;4824871;29;20470;-85
2022/03/20 05:30:23;;;;;;;37.40;17.10;;;;;;;;;;4832318;29;20373;-85
2022/03/20 05:33:10;;;;;;;35.78;16.95;;;;;;;;;;4843174;29;20045;-87
2022/03/20 05:35:56;;;;;;;48.25;19.42;;;;;;;;;;4825690;29;20050;-85
2022/03/20 05:38:41;;;;;;;20.95;9.13;;;;;;;;;;4827434;29;20042;-85
2022/03/20 05:44:31;;;;;;;38.33;18.27;;;;;;;;;;4843204;29;20053;-85
2022/03/20 05:47:16;;;;;;;26.25;14.10;;;;;;;;;;4835094;29;20046;-87
2022/03/20 05:50:04;;;;;;;24.95;13.70;;;;;;;;;;4814909;29;20054;-86
2022/03/20 05:52:49;;;;;;;26.63;14.38;;;;;;;;;;4836462;29;20049;-86
2022/03/20 05:58:39;;;;;;;27.27;13.68;;;;;;;;;;4842659;29;20042;-85
2022/03/20 06:01:26;;;;;;;33.88;16.88;;;;;;;;;;4823869;29;20042;-85
2022/03/20 06:04:13;;;;;;;36.97;19.08;;;;;;;;;;4823119;29;20478;-85
2022/03/20 06:06:58;;;;;;;40.83;19.52;;;;;;;;;;4842763;29;20049;-86
2022/03/20 06:09:44;;;;;;;35.03;18.60;;;;;;;;;;4843384;29;20478;-85
2022/03/20 06:12:29;;;;;;;27.63;14.68;;;;;;;;;;4817108;29;20486;-85
2022/03/20 06:15:15;;;;;;;23.83;12.68;;;;;;;;;;4822336;29;20389;-86
2022/03/20 06:18:04;;;;;;;34.17;18.75;;;;;;;;;;4825724;29;20053;-85
2022/03/20 06:20:50;;;;;;;33.72;16.60;;;;;;;;;;4825754;29;20054;-85
2022/03/20 06:23:36;;;;;;;31.75;17.83;;;;;;;;;;4831797;29;20050;-85
2022/03/20 06:26:25;;;;;;;23.15;11.80;;;;;;;;;;4835458;29;20058;-88
2022/03/20 06:29:11;;;;;;;24.83;12.35;;;;;;;;;;4834798;29;20046;-87
2022/03/20 06:31:57;;;;;;;16.77;8.02;;;;;;;;;;4845242;29;20046;-87
2022/03/20 06:34:42;;;;;;;6.60;4.47;;;;;;;;;;4835593;29;20054;-85
2022/03/20 06:37:28;;;;;;;9.15;5.93;;;;;;;;;;4824858;29;20050;-85
2022/03/20 06:40:15;;;;;;;8.80;5.35;;;;;;;;;;4837702;29;20046;-88
2022/03/20 06:43:00;;;;;;;6.88;4.57;;;;;;;;;;4845640;29;20041;-85
2022/03/20 06:45:46;;;;;;;5.30;3.78;;;;;;;;;;4840778;29;20045;-84
2022/03/20 06:48:33;;;;;;;8.75;6.05;;;;;;;;;;4833219;29;20062;-86
2022/03/20 06:51:19;;;;;;;10.20;6.30;;;;;;;;;;4829936;29;20045;-86
2022/03/20 06:54:07;;;;;;;6.90;4.05;;;;;;;;;;4824408;29;20054;-85
2022/03/20 06:56:54;;;;;;;13.88;6.93;;;;;;;;;;4828539;29;20050;-85
2022/03/20 06:59:39;;;;;;;15.70;7.65;;;;;;;;;;4826195;29;20042;-86
2022/03/20 07:02:25;;;;;;;11.02;5.50;;;;;;;;;;4827050;29;20046;-83
2022/03/20 07:05:11;;;;;;;9.70;6.07;;;;;;;;;;4832674;29;20054;-83
2022/03/20 07:07:58;;;;;;;11.43;5.63;;;;;;;;;;4843235;29;20454;-84
2022/03/20 07:10:43;;;;;;;9.13;5.55;;;;;;;;;;4822775;29;20050;-86
2022/03/20 07:13:48;;;;;;;7.50;4.15;;;;;;;;;;4837222;29;20058;-87
2022/03/20 07:16:33;;;;;;;6.15;4.35;;;;;;;;;;4851136;29;20042;-85
2022/03/20 07:19:18;;;;;;;7.28;4.63;;;;;;;;;;4830858;29;20045;-85
2022/03/20 07:22:05;;;;;;;8.77;5.22;;;;;;;;;;4835281;29;20046;-85
2022/03/20 07:24:50;;;;;;;9.15;4.93;;;;;;;;;;4849384;29;20057;-87
2022/03/20 07:30:39;;;;;;;7.43;4.25;;;;;;;;;;4826842;29;20042;-85
2022/03/20 07:33:25;;;;;;;10.02;5.40;;;;;;;;;;4831278;29;20042;-84
2022/03/20 07:36:13;;;;;;;10.00;5.22;;;;;;;;;;4815378;29;20050;-86
2022/03/20 07:38:58;;;;;;;9.60;6.13;;;;;;;;;;4820096;29;20471;-86
2022/03/20 07:41:44;;;;;;;10.85;6.10;;;;;;;;;;4839746;29;20034;-84
2022/03/20 07:44:31;;;;;;;9.75;6.25;;;;;;;;;;4817893;29;20049;-86
2022/03/20 07:47:21;;;;;;;9.52;6.18;;;;;;;;;;4844251;29;20050;-84
2022/03/20 07:50:09;;;;;;;32.90;15.43;;;;;;;;;;4835135;29;20042;-87
2022/03/20 07:53:04;;;;;;;9.55;5.68;;;;;;;;;;4820644;29;20034;-87
2022/03/20 07:55:50;;;;;;;4.93;3.78;;;;;;;;;;4834286;29;20043;-88
2022/03/20 07:58:57;;;;;;;5.70;3.90;;;;;;;;;;4818146;29;20046;-88
2022/03/20 08:02:05;;;;;;;28.20;13.05;;;;;;;;;;4805014;29;20041;-88
2022/03/20 08:05:25;;;;;;;6.03;3.05;;;;;;;;;;4808181;29;20054;-86
2022/03/20 08:09:01;;;;;;;7.20;4.13;;;;;;;;;;4811892;29;20054;-89
2022/03/20 08:12:03;;;;;;;8.00;5.18;;;;;;;;;;4811938;29;20046;-85
2022/03/20 08:15:15;;;;;;;10.55;5.78;;;;;;;;;;4820590;29;20042;-88
2022/03/20 08:18:02;;;;;;;8.75;4.93;;;;;;;;;;4818193;29;20042;-89
2022/03/20 08:21:35;;;;;;;9.90;5.55;;;;;;;;;;4818307;29;20046;-87
2022/03/20 08:24:56;;;;;;;12.27;6.07;;;;;;;;;;4831420;29;20045;-87
2022/03/20 08:27:53;;;;;;;4.93;3.67;;;;;;;;;;4820800;29;20045;-86
2022/03/20 08:34:27;;;;;;;3.88;2.95;;;;;;;;;;4839328;29;20054;-82
2022/03/20 08:37:14;;;;;;;6.88;4.05;;;;;;;;;;4841043;29;20054;-82
2022/03/20 08:39:59;;;;;;;11.13;6.82;;;;;;;;;;4849259;29;20397;-83
2022/03/20 08:42:47;;;;;;;3.92;2.92;;;;;;;;;;4848407;29;20046;-82
2022/03/20 08:45:33;;;;;;;9.77;4.78;;;;;;;;;;4840621;29;20034;-81
2022/03/20 08:48:18;;;;;;;6.50;3.50;;;;;;;;;;4842924;29;20053;-82
2022/03/20 08:51:04;;;;;;;17.73;8.50;;;;;;;;;;4834043;29;20045;-82
2022/03/20 08:53:50;;;;;;;13.95;7.43;;;;;;;;;;4837053;29;20042;-83
2022/03/20 08:56:35;;;;;;;15.57;7.50;;;;;;;;;;4835551;29;20046;-83
2022/03/20 08:59:20;;;;;;;8.23;4.85;;;;;;;;;;4855973;29;20045;-84
2022/03/20 09:02:06;;;;;;;12.80;6.72;;;;;;;;;;4853789;29;20054;-84
2022/03/20 09:04:52;;;;;;;6.88;4.30;;;;;;;;;;4842993;29;20397;-83
2022/03/20 09:07:41;;;;;;;5.75;3.95;;;;;;;;;;4841133;29;20054;-83
2022/03/20 09:10:27;;;;;;;12.75;6.45;;;;;;;;;;4849479;29;20045;-84
2022/03/20 09:13:12;;;;;;;9.32;4.82;;;;;;;;;;4842787;29;20030;-83
2022/03/20 09:19:07;;;;;;;8.70;5.47;;;;;;;;;;4847112;29;20049;-85
2022/03/20 09:21:52;;;;;;;5.20;3.42;;;;;;;;;;4817131;29;20051;-84
2022/03/20 09:24:38;;;;;;;5.47;3.10;;;;;;;;;;4827614;29;20390;-83
2022/03/20 09:27:23;;;;;;;12.55;6.43;;;;;;;;;;4827321;29;20045;-82
2022/03/20 09:30:10;;;;;;;7.30;4.50;;;;;;;;;;4834915;29;20494;-84
2022/03/20 09:32:55;;;;;;;10.88;5.85;;;;;;;;;;4829270;29;20049;-84
2022/03/20 09:35:40;;;;;;;6.70;4.55;;;;;;;;;;4846812;29;20054;-86
2022/03/20 09:38:26;;;;;;;6.45;3.72;;;;;;;;;;4852696;29;20058;-85
2022/03/20 09:41:11;;;;;;;6.05;3.92;;;;;;;;;;4841235;29;20034;-82
2022/03/20 09:44:04;;;;;;;7.05;3.88;;;;;;;;;;4837097;29;20049;-85
2022/03/20 09:46:50;;;;;;;6.18;4.00;;;;;;;;;;4841253;29;20050;-86
2022/03/20 09:49:36;;;;;;;7.30;3.53;;;;;;;;;;4845225;29;20481;-84
2022/03/20 09:52:23;;;;;;;6.25;3.97;;;;;;;;;;4837812;29;20469;-84
2022/03/20 09:55:09;;;;;;;7.10;4.43;;;;;;;;;;4842632;29;20038;-84
2022/03/20 09:57:58;;;;;;;8.07;4.10;;;;;;;;;;4851146;29;20049;-87
2022/03/20 10:00:43;;;;;;;5.35;3.53;;;;;;;;;;4851372;29;20413;-81
2022/03/20 10:03:28;;;;;;;7.50;5.00;;;;;;;;;;4851247;29;20046;-81
2022/03/20 10:06:17;;;;;;;41.50;21.75;;;;;;;;;;4845604;29;20041;-81
2022/03/20 10:09:05;;;;;;;13.48;8.35;;;;;;;;;;4845492;29;20046;-84
2022/03/20 10:11:55;;;;;;;8.93;5.55;;;;;;;;;;4845163;29;20049;-84
2022/03/20 10:14:45;;;;;;;6.68;3.97;;;;;;;;;;4844502;29;20053;-82
2022/03/20 10:17:31;;;;;;;6.90;3.63;;;;;;;;;;4851423;29;20042;-82
2022/03/20 10:20:18;;;;;;;5.38;3.67;;;;;;;;;;4851405;29;20038;-83
2022/03/20 10:23:24;;;;;;;7.18;3.70;;;;;;;;;;4845354;29;20046;-83
2022/03/20 10:26:11;;;;;;;8.90;5.22;;;;;;;;;;4845625;29;20054;-84
2022/03/20 10:28:57;;;;;;;6.53;3.90;;;;;;;;;;4848556;29;20046;-83
2022/03/20 10:31:50;;;;;;;8.48;3.53;;;;;;;;;;4827116;29;20046;-83
2022/03/20 10:34:51;;;;;;;8.30;4.43;;;;;;;;;;4835459;29;20046;-83
2022/03/20 10:37:45;;;;;;;10.52;4.32;;;;;;;;;;4823040;29;20047;-82
2022/03/20 10:40:30;;;;;;;26.42;16.10;;;;;;;;;;4826996;29;20043;-83
2022/03/20 10:43:17;;;;;;;5.82;3.60;;;;;;;;;;4835031;29;20046;-81
2022/03/20 10:46:05;;;;;;;17.20;8.43;;;;;;;;;;4833094;29;20389;-80
2022/03/20 10:48:55;;;;;;;3.90;3.17;;;;;;;;;;4832742;29;20050;-83
2022/03/20 10:51:42;;;;;;;9.82;5.00;;;;;;;;;;4833037;29;20399;-83
2022/03/20 10:54:45;;;;;;;14.63;8.35;;;;;;;;;;4846148;29;20049;-84
2022/03/20 10:57:33;;;;;;;7.00;3.88;;;;;;;;;;4842718;29;20030;-82
2022/03/20 11:00:18;;;;;;;11.60;7.82;;;;;;;;;;4835889;29;20231;-83
2022/03/20 11:03:04;;;;;;;9.50;4.47;;;;;;;;;;4832296;29;20402;-84
2022/03/20 11:05:50;;;;;;;5.45;3.22;;;;;;;;;;4826925;29;20047;-85
2022/03/20 11:08:39;;;;;;;8.32;5.10;;;;;;;;;;4828665;29;20482;-82
2022/03/20 11:11:25;;;;;;;9.07;5.03;;;;;;;;;;4841869;29;20054;-83
2022/03/20 11:14:15;;;;;;;10.15;6.35;;;;;;;;;;4845025;29;20046;-85
2022/03/20 11:17:02;;;;;;;10.98;6.18;;;;;;;;;;4844745;29;20394;-83
2022/03/20 11:19:53;;;;;;;10.48;5.47;;;;;;;;;;4836564;29;20034;-84
2022/03/20 11:22:46;;;;;;;11.20;7.13;;;;;;;;;;4850912;29;20057;-82
2022/03/20 11:25:35;;;;;;;11.13;4.88;;;;;;;;;;4831729;29;20050;-84
2022/03/20 11:28:22;;;;;;;48.20;24.33;;;;;;;;;;4845978;29;20042;-81
2022/03/20 11:31:07;;;;;;;15.48;8.55;;;;;;;;;;4850355;29;20054;-84
2022/03/20 11:33:55;;;;;;;10.57;7.30;;;;;;;;;;4850339;29;20377;-83
2022/03/20 11:37:03;;;;;;;7.18;3.63;;;;;;;;;;4844119;29;20054;-82
2022/03/20 11:40:10;;;;;;;8.65;4.82;;;;;;;;;;4844002;29;20042;-83
2022/03/20 11:43:19;;;;;;;7.47;5.35;;;;;;;;;;4849531;29;20422;-81
2022/03/20 11:46:32;;;;;;;9.63;5.22;;;;;;;;;;4833768;29;20038;-81
2022/03/20 11:49:22;;;;;;;6.38;4.40;;;;;;;;;;4849098;29;20478;-83
2022/03/20 11:52:11;;;;;;;8.80;5.53;;;;;;;;;;4848921;29;20045;-82
2022/03/20 11:54:57;;;;;;;11.43;4.85;;;;;;;;;;4836873;29;20050;-84
2022/03/20 11:57:44;;;;;;;16.75;9.13;;;;;;;;;;4834518;29;20038;-82
2022/03/20 12:00:32;;;;;;;18.98;9.07;;;;;;;;;;4829357;29;20046;-82
2022/03/20 12:03:44;;;;;;;9.75;5.90;;;;;;;;;;4831757;29;20039;-83
2022/03/20 12:06:57;;;;;;;10.80;7.18;;;;;;;;;;4838137;29;20046;-83
2022/03/20 12:10:01;;;;;;;7.13;4.20;;;;;;;;;;4839285;29;20045;-81
2022/03/20 12:12:54;;;;;;;7.32;4.93;;;;;;;;;;4843453;29;20394;-81
2022/03/20 12:15:44;;;;;;;21.45;14.98;;;;;;;;;;4827185;29;20042;-84
2022/03/20 12:19:05;;;;;;;7.45;4.97;;;;;;;;;;4843912;29;20477;-81
2022/03/20 12:21:58;;;;;;;36.15;15.57;;;;;;;;;;4833057;29;20045;-83
2022/03/20 12:24:57;;;;;;;21.92;11.77;;;;;;;;;;4841296;29;20394;-81
2022/03/20 12:27:44;;;;;;;21.60;11.45;;;;;;;;;;4849577;29;20038;-84
2022/03/20 12:30:31;;;;;;;14.30;6.07;;;;;;;;;;4851113;29;20045;-83
2022/03/20 12:33:22;;;;;;;10.38;5.18;;;;;;;;;;4839372;29;20386;-82
2022/03/20 12:36:27;;;;;;;10.20;5.45;;;;;;;;;;4830919;29;20050;-83
2022/03/20 12:39:13;;;;;;;20.48;13.77;;;;;;;;;;4829690;29;20397;-81
2022/03/20 12:41:59;;;;;;;23.02;10.70;;;;;;;;;;4851705;29;20046;-84
2022/03/20 12:44:47;;;;;;;14.65;6.45;;;;;;;;;;4846272;29;20125;-83
2022/03/20 12:47:36;;;;;;;21.30;8.40;;;;;;;;;;4841392;29;20050;-86
2022/03/20 12:50:43;;;;;;;5.32;4.50;;;;;;;;;;4818536;29;20050;-83
2022/03/20 12:53:40;;;;;;;6.57;4.10;;;;;;;;;;4837755;29;20053;-85
2022/03/20 12:56:29;;;;;;;7.40;4.28;;;;;;;;;;4843685;29;20046;-82
2022/03/20 12:59:24;;;;;;;8.07;4.25;;;;;;;;;;4842991;29;20050;-81
2022/03/20 13:02:13;;;;;;;20.33;9.98;;;;;;;;;;4848802;29;20053;-84
2022/03/20 13:05:09;;;;;;;12.57;7.00;;;;;;;;;;4829969;29;20053;-84
2022/03/20 13:07:55;;;;;;;16.15;8.70;;;;;;;;;;4849098;29;20045;-82
2022/03/20 13:10:41;;;;;;;20.67;12.65;;;;;;;;;;4849244;29;20477;-82
2022/03/20 13:13:28;;;;;;;18.58;9.73;;;;;;;;;;4848990;29;20373;-84
2022/03/20 13:16:15;;;;;;;38.03;20.85;;;;;;;;;;4843562;29;20046;-83
2022/03/20 13:19:01;;;;;;;20.67;10.35;;;;;;;;;;4843133;29;20381;-84
2022/03/20 13:21:50;;;;;;;6.07;4.53;;;;;;;;;;4842860;29;20046;-82
2022/03/20 13:24:37;;;;;;;12.98;7.13;;;;;;;;;;4838272;29;20481;-83
2022/03/20 13:27:22;;;;;;;53.28;29.25;;;;;;;;;;4852862;29;20053;-84
2022/03/20 13:30:08;;;;;;;34.00;20.27;;;;;;;;;;4846521;29;20046;-84
2022/03/20 13:32:55;;;;;;;21.33;10.10;;;;;;;;;;4846616;29;20042;-85
2022/03/20 13:35:42;;;;;;;13.88;8.15;;;;;;;;;;4828899;29;20054;-85
2022/03/20 13:38:37;;;;;;;15.68;8.15;;;;;;;;;;4845867;29;20049;-83
2022/03/20 13:41:26;;;;;;;22.15;8.98;;;;;;;;;;4837363;29;20045;-83
2022/03/20 13:44:12;;;;;;;17.90;12.27;;;;;;;;;;4840174;29;20470;-82
2022/03/20 13:47:00;;;;;;;11.68;6.35;;;;;;;;;;4851531;29;20473;-81
2022/03/20 13:49:47;;;;;;;9.43;6.03;;;;;;;;;;4850499;29;20478;-82
2022/03/20 13:52:35;;;;;;;14.30;10.18;;;;;;;;;;4852018;29;20046;-81
2022/03/20 13:55:21;;;;;;;11.95;8.60;;;;;;;;;;4851954;29;20481;-82
2022/03/20 13:58:08;;;;;;;14.57;7.53;;;;;;;;;;4849754;29;20046;-82
2022/03/20 14:01:00;;;;;;;12.10;6.43;;;;;;;;;;4845301;29;20049;-81
2022/03/20 14:03:45;;;;;;;6.05;4.88;;;;;;;;;;4835604;29;20042;-83
2022/03/20 14:06:42;;;;;;;12.65;7.00;;;;;;;;;;4851162;29;20462;-82
2022/03/20 14:09:31;;;;;;;14.15;8.15;;;;;;;;;;4836043;29;20057;-83
2022/03/20 14:12:32;;;;;;;14.55;7.78;;;;;;;;;;4840966;29;20042;-81
2022/03/20 14:15:18;;;;;;;16.92;9.98;;;;;;;;;;4851749;29;20049;-81
2022/03/20 14:18:12;;;;;;;25.58;11.63;;;;;;;;;;4852104;29;20058;-81
2022/03/20 14:21:21;;;;;;;17.23;10.50;;;;;;;;;;4845791;29;20042;-81
2022/03/20 14:24:12;;;;;;;13.43;8.68;;;;;;;;;;4851510;29;20050;-80
2022/03/20 14:26:58;;;;;;;18.95;9.80;;;;;;;;;;4850489;29;20050;-82
2022/03/20 14:39:27;;;;;;;41.97;21.40;;;;;;;;;;4834174;29;20051;-82
2022/03/20 14:42:31;;;;;;;31.73;18.33;;;;;;;;;;4845061;29;20046;-80
2022/03/20 14:45:17;;;;;;;54.92;34.72;;;;;;;;;;4837276;29;20042;-81
2022/03/20 14:48:03;;;;;;;8.95;4.57;;;;;;;;;;4851504;29;20482;-81
2022/03/20 14:50:47;;;;;;;7.45;4.95;;;;;;;;;;4849010;29;20042;-81
2022/03/20 14:53:33;;;;;;;10.57;6.38;;;;;;;;;;4837978;29;20050;-81
2022/03/20 14:56:18;;;;;;;9.90;6.40;;;;;;;;;;4851366;29;20046;-81
2022/03/20 14:59:04;;;;;;;11.60;6.65;;;;;;;;;;4850929;29;20478;-83
2022/03/20 15:01:51;;;;;;;10.20;5.53;;;;;;;;;;4847789;29;20083;-81
2022/03/20 15:04:37;;;;;;;17.10;9.77;;;;;;;;;;4833615;29;20394;-83
2022/03/20 15:07:23;;;;;;;25.15;12.10;;;;;;;;;;4842164;29;20042;-83
2022/03/20 15:13:15;;;;;;;11.30;6.67;;;;;;;;;;4849297;29;20046;-81
2022/03/20 15:16:00;;;;;;;17.45;6.93;;;;;;;;;;4850909;29;20282;-81
2022/03/20 15:18:45;;;;;;;13.27;7.82;;;;;;;;;;4850677;29;20046;-80
2022/03/20 15:21:31;;;;;;;13.20;7.90;;;;;;;;;;4844985;29;20480;-82
2022/03/20 15:24:16;;;;;;;12.55;5.75;;;;;;;;;;4845547;29;20054;-81
2022/03/20 15:27:02;;;;;;;12.32;5.20;;;;;;;;;;4825889;29;20038;-81
2022/03/20 15:29:48;;;;;;;16.73;9.95;;;;;;;;;;4849380;29;20050;-82
2022/03/20 15:32:33;;;;;;;7.20;4.53;;;;;;;;;;4850019;29;20389;-83
2022/03/20 15:35:20;;;;;;;9.20;5.22;;;;;;;;;;4843078;29;20050;-80
2022/03/20 15:38:05;;;;;;;6.57;4.10;;;;;;;;;;4850530;29;20481;-83
2022/03/20 15:40:51;;;;;;;12.88;9.13;;;;;;;;;;4850250;29;20058;-82
2022/03/20 15:43:41;;;;;;;12.48;6.60;;;;;;;;;;4850306;29;20050;-83
2022/03/20 15:46:26;;;;;;;28.92;12.68;;;;;;;;;;4849454;29;20049;-81
2022/03/20 15:49:12;;;;;;;28.35;9.35;;;;;;;;;;4835093;29;20401;-81
2022/03/20 15:52:00;;;;;;;18.35;8.82;;;;;;;;;;4850247;29;20054;-81
2022/03/20 15:54:45;;;;;;;9.77;4.88;;;;;;;;;;4850100;29;20046;-80
2022/03/20 15:57:30;;;;;;;11.32;4.35;;;;;;;;;;4844159;29;20046;-81
2022/03/20 16:00:16;;;;;;;11.40;5.75;;;;;;;;;;4843738;29;20462;-82
2022/03/20 16:03:02;;;;;;;11.23;4.60;;;;;;;;;;4849937;29;20038;-82
2022/03/20 16:05:48;;;;;;;15.88;5.50;;;;;;;;;;4837644;29;20046;-81
2022/03/20 16:08:33;;;;;;;11.35;5.20;;;;;;;;;;4833261;29;20049;-85
2022/03/20 16:11:18;;;;;;;13.18;6.70;;;;;;;;;;4834790;29;20054;-81
2022/03/20 16:14:04;;;;;;;47.97;19.80;;;;;;;;;;4838621;29;20418;-81
2022/03/20 16:16:50;;;;;;;71.68;28.00;;;;;;;;;;4837572;29;20049;-82
2022/03/20 16:19:35;;;;;;;46.75;16.08;;;;;;;;;;4846156;29;20393;-81
2022/03/20 16:22:21;;;;;;;61.60;25.05;;;;;;;;;;4845997;29;20046;-81
2022/03/20 16:28:32;;;;;;;51.00;13.48;;;;;;;;;;4851024;29;20050;-83
2022/03/20 16:31:19;;;;;;;29.90;13.10;;;;;;;;;;4841323;29;20046;-82
2022/03/20 16:34:06;;;;;;;62.47;21.60;;;;;;;;;;4830818;29;20046;-81
2022/03/20 16:36:53;;;;;;;62.42;24.95;;;;;;;;;;4838950;29;20474;-84
2022/03/20 16:39:38;;;;;;;103.70;34.22;;;;;;;;;;4849036;29;20037;-85
2022/03/20 16:42:24;;;;;;;93.80;31.25;;;;;;;;;;4841780;29;20370;-83
2022/03/20 16:45:13;;;;;;;40.83;17.63;;;;;;;;;;4831029;29;20054;-83
2022/03/20 16:48:01;;;;;;;49.58;19.65;;;;;;;;;;4817315;29;20046;-83
2022/03/20 16:50:46;;;;;;;43.50;19.80;;;;;;;;;;4830841;29;20058;-84
2022/03/20 16:53:32;;;;;;;40.88;19.83;;;;;;;;;;4824926;29;20038;-84
2022/03/20 16:56:17;;;;;;;48.60;26.75;;;;;;;;;;4832056;29;20053;-82
2022/03/20 16:59:02;;;;;;;78.38;38.92;;;;;;;;;;4846411;29;20046;-83
2022/03/20 17:01:48;;;;;;;75.45;34.72;;;;;;;;;;4840089;29;20045;-85
2022/03/20 17:04:33;;;;;;;67.07;35.97;;;;;;;;;;4839941;29;20050;-84
2022/03/20 17:07:19;;;;;;;79.57;41.75;;;;;;;;;;4835683;29;20069;-82
2022/03/20 17:10:06;;;;;;;114.13;49.40;;;;;;;;;;4848928;29;20049;-83
2022/03/20 17:12:52;;;;;;;102.47;48.95;;;;;;;;;;4836071;29;20046;-85
2022/03/20 17:15:39;;;;;;;101.00;46.75;;;;;;;;;;4845225;29;20045;-83
2022/03/20 17:18:25;;;;;;;123.00;56.25;;;;;;;;;;4849267;29;20042;-84
2022/03/20 17:21:10;;;;;;;140.35;63.65;;;;;;;;;;4848996;29;20042;-85
2022/03/20 17:23:55;;;;;;;129.50;56.90;;;;;;;;;;4843063;29;20045;-87
2022/03/20 17:26:40;;;;;;;146.55;67.32;;;;;;;;;;4847761;29;20041;-85